Celebrity Mercury — 9HJG9 — position and weather

sailwx.info

Track history (hours):
 
Tides and Currents Weather Stations Pressure Air Temp Water Temp Dewpoint Dewpoint Depression Visibility Wind Speed Wind Dir Waves Ship Positions

Celebrity Mercury

Last reported at 2019-Jul-19 16:34 UTC. Time now 2019-Jul-19 18:48 UTC.
Position N 42°06' E 011°46'.

Length 264 m; draft 8.5 m.

Type: Passenger vessel. MMSI: 249053000.

Date/timePositionNaut miles runAvg speedWind from/ knotsBaromVisibWave heightAir tempDewpointWater temp
2019-Jul-19 16:34N 42°06' E 011°46'0 0.0
2019-Jul-19 16:28N 42°06' E 011°46'0 0.0
2019-Jul-19 15:54N 42°06' E 011°46'0 0.0
2019-Jul-19 07:29N 42°06' E 011°46'18 3.8
2019-Jul-19 02:49N 41°59' E 011°25'412.9
2019-Jul-19 02:30N 41°57' E 011°20'613.0
2019-Jul-19 02:00N 41°55' E 011°12'916.4
2019-Jul-19 01:29N 41°51' E 011°02'816.6
2019-Jul-19 01:00N 41°48' E 010°52'816.4
2019-Jul-19 00:30N 41°44' E 010°42'816.2
2019-Jul-19 00:00N 41°41' E 010°32'816.5
2019-Jul-18 23:30N 41°38' E 010°22'916.7
2019-Jul-18 22:59N 41°34' E 010°11'1016.4
2019-Jul-18 22:22N 41°30' E 009°59'616.3
2019-Jul-18 21:58N 41°27' E 009°51'2815.8
2019-Jul-18 20:10N 41°17' E 009°15'316.3
2019-Jul-18 20:00N 41°17' E 009°12'816.2
2019-Jul-18 19:30N 41°15' E 009°02'816.5
2019-Jul-18 19:00N 41°10' E 008°52'816.4
2019-Jul-18 18:30N 41°06' E 008°44'816.6
2019-Jul-18 18:00N 40°60' E 008°36'816.6
2019-Jul-18 17:30N 40°54' E 008°28'5 9.8
2019-Jul-18 16:59N 40°51' E 008°23'0 0.1
2019-Jul-18 15:30N 40°51' E 008°23'0 0.0
2019-Jul-18 13:12N 40°51' E 008°23'0 0.0
2019-Jul-18 12:45N 40°51' E 008°23'0 0.0
2019-Jul-18 05:55N 40°51' E 008°23'3 2.8
2019-Jul-18 04:55N 40°53' E 008°24'4 8.4
2019-Jul-18 04:26N 40°57' E 008°25'3 6.7
2019-Jul-18 04:00N 41°00' E 008°24'6 9.6 270 / 101014.027.0 26.0 29.0
2019-Jul-18 03:19N 41°06' E 008°27'3 8.0
2019-Jul-18 02:59N 41°09' E 008°26'4 8.1
2019-Jul-18 02:30N 41°13' E 008°26'4 8.4
2019-Jul-18 02:00N 41°17' E 008°25'4 8.6
2019-Jul-18 01:30N 41°21' E 008°24'4 8.6
2019-Jul-18 01:00N 41°25' E 008°23'4 8.5
2019-Jul-18 00:30N 41°29' E 008°23'4 8.5
2019-Jul-18 00:00N 41°34' E 008°22'4 8.4
2019-Jul-17 23:30N 41°38' E 008°21'4 8.2
2019-Jul-17 23:00N 41°42' E 008°21'4 7.5
2019-Jul-17 22:30N 41°45' E 008°24'4 7.5
2019-Jul-17 21:55N 41°47' E 008°29'3 7.5
2019-Jul-17 21:30N 41°49' E 008°33'4 7.7
2019-Jul-17 21:00N 41°50' E 008°37'6 7.9
2019-Jul-17 20:17N 41°53' E 008°44'2 6.6
2019-Jul-17 19:59N 41°55' E 008°45'4 0.3
2019-Jul-17 04:46N 41°51' E 008°43'311.8
2019-Jul-17 04:31N 41°49' E 008°40'611.6
2019-Jul-17 04:01N 41°44' E 008°36'612.9
2019-Jul-17 03:30N 41°38' E 008°39'713.7
2019-Jul-17 03:01N 41°32' E 008°43'5320.3
2019-Jul-17 03:00N 41°30' E 008°36'918.7 300 / 41014.027.0 26.0 30.0
2019-Jul-17 02:31N 41°25' E 008°46'612.9
2019-Jul-17 02:00N 41°21' E 008°52'613.0
2019-Jul-17 01:31N 41°17' E 008°60'  
2019-Jul-14 19:18N 37°00' E 015°27'1816.4
2019-Jul-14 18:13N 37°17' E 015°19'11 0.8
2019-Jul-14 04:05N 37°27' E 015°25'215.9
2019-Jul-14 03:58N 37°27' E 015°27'915.8
2019-Jul-14 03:25N 37°25' E 015°38'715.9
2019-Jul-14 02:59N 37°22' E 015°46'816.4
2019-Jul-14 02:29N 37°21' E 015°56'816.2
2019-Jul-14 01:59N 37°19' E 016°06'1016.0
2019-Jul-14 01:20N 37°17' E 016°19'716.1
2019-Jul-14 00:55N 37°16' E 016°27'354 6.9
2019-Jul-11 21:16N 37°19' E 023°52'518.3
2019-Jul-11 20:59N 37°24' E 023°50'918.2
2019-Jul-11 20:31N 37°32' E 023°46'918.6
2019-Jul-11 20:00N 37°41' E 023°42'918.5
2019-Jul-11 19:31N 37°50' E 023°37'713.3
2019-Jul-11 19:00N 37°56' E 023°37'0 0.8
2019-Jul-11 18:31N 37°56' E 023°37'815.1
2019-Jul-11 18:00N 37°49' E 023°39'714.5
2019-Jul-11 17:31N 37°42' E 023°41'713.0
2019-Jul-11 17:01N 37°47' E 023°37'713.4
2019-Jul-11 16:31N 37°54' E 023°37'2 4.4
2019-Jul-11 15:58N 37°56' E 023°38'0 0.0
2019-Jul-11 15:28N 37°56' E 023°38'0 0.0
2019-Jul-11 14:58N 37°56' E 023°38'0 0.0
2019-Jul-11 14:28N 37°56' E 023°38'0 0.0
2019-Jul-11 13:58N 37°56' E 023°38'0 0.0
2019-Jul-11 13:28N 37°56' E 023°38'0 0.0
2019-Jul-11 12:58N 37°56' E 023°38'0 0.0
2019-Jul-11 12:28N 37°56' E 023°38'0 0.0
2019-Jul-11 11:58N 37°56' E 023°38'0 0.0
2019-Jul-11 11:28N 37°56' E 023°38'0 0.0
2019-Jul-11 10:58N 37°56' E 023°38'0 0.0
2019-Jul-11 10:28N 37°56' E 023°38'0 0.0
2019-Jul-11 09:58N 37°56' E 023°38'0 0.0
2019-Jul-11 09:25N 37°56' E 023°38'0 0.0
2019-Jul-11 08:58N 37°56' E 023°38'0 0.0
2019-Jul-11 08:28N 37°56' E 023°38'0 0.0
2019-Jul-11 07:58N 37°56' E 023°38'0 0.0
2019-Jul-11 07:28N 37°56' E 023°38'0 0.0
2019-Jul-11 06:55N 37°56' E 023°38'0 0.0
2019-Jul-11 06:28N 37°56' E 023°38'0 0.0
2019-Jul-11 05:58N 37°56' E 023°38'0 0.0
2019-Jul-11 05:28N 37°56' E 023°38'0 0.0
2019-Jul-11 04:58N 37°56' E 023°38'0 0.0
2019-Jul-11 04:22N 37°56' E 023°38'0 0.0
2019-Jul-11 03:58N 37°56' E 023°38'0 0.0
2019-Jul-11 03:28N 37°56' E 023°38'0 0.0
2019-Jul-11 03:00N 37°56' E 023°38'0 0.0
2019-Jul-11 02:30N 37°56' E 023°38'0 0.0
2019-Jul-11 02:00N 37°56' E 023°38'0 0.0
2019-Jul-11 01:30N 37°56' E 023°38'1 2.6
2019-Jul-11 01:00N 37°56' E 023°37'714.7
2019-Jul-11 00:30N 37°49' E 023°40'815.9
2019-Jul-11 00:00N 37°42' E 023°44'815.8
2019-Jul-10 23:30N 37°34' E 023°48'816.2
2019-Jul-10 23:01N 37°27' E 023°52'816.5
2019-Jul-10 22:31N 37°19' E 023°55'816.7
2019-Jul-10 22:00N 37°11' E 023°59'916.6
2019-Jul-10 21:29N 37°03' E 024°03'816.6
2019-Jul-10 21:00N 36°56' E 024°06'816.6
2019-Jul-10 20:30N 36°48' E 024°09'816.7
2019-Jul-10 20:00N 36°40' E 024°12'61 3.3
2019-Jul-10 01:20N 35°39' E 024°15'5316.7
2019-Jul-09 22:09N 35°46' E 023°10'516.4
2019-Jul-09 21:50N 35°47' E 023°04'5218.2
2019-Jul-09 19:00N 35°48' E 022°00'   310 / 191012.010.8 27.0 30.0
Track history (hours):
 
Tides and Currents Weather Stations Pressure Air Temp Water Temp Dewpoint Dewpoint Depression Visibility Wind Speed Wind Dir Waves Ship Positions

Celebrity Mercury

Last reported at 2019-Jul-19 16:34 UTC. Time now 2019-Jul-19 18:48 UTC.
Position N 42°06' E 011°46'.

Length 264 m; draft 8.5 m.

Type: Passenger vessel. MMSI: 249053000.

Date/timePositionNaut miles runAvg speedWind from/ knotsBaromVisibWave heightAir tempDewpointWater temp
2019-Jul-19 16:34N 42°06' E 011°46'0 0.0
2019-Jul-19 16:28N 42°06' E 011°46'0 0.0
2019-Jul-19 15:54N 42°06' E 011°46'0 0.0
2019-Jul-19 07:29N 42°06' E 011°46'18 3.8
2019-Jul-19 02:49N 41°59' E 011°25'412.9
2019-Jul-19 02:30N 41°57' E 011°20'613.0
2019-Jul-19 02:00N 41°55' E 011°12'916.4
2019-Jul-19 01:29N 41°51' E 011°02'816.6
2019-Jul-19 01:00N 41°48' E 010°52'816.4
2019-Jul-19 00:30N 41°44' E 010°42'816.2
2019-Jul-19 00:00N 41°41' E 010°32'816.5
2019-Jul-18 23:30N 41°38' E 010°22'916.7
2019-Jul-18 22:59N 41°34' E 010°11'1016.4
2019-Jul-18 22:22N 41°30' E 009°59'616.3
2019-Jul-18 21:58N 41°27' E 009°51'2815.8
2019-Jul-18 20:10N 41°17' E 009°15'316.3
2019-Jul-18 20:00N 41°17' E 009°12'816.2
2019-Jul-18 19:30N 41°15' E 009°02'816.5
2019-Jul-18 19:00N 41°10' E 008°52'816.4
2019-Jul-18 18:30N 41°06' E 008°44'816.6
2019-Jul-18 18:00N 40°60' E 008°36'816.6
2019-Jul-18 17:30N 40°54' E 008°28'5 9.8
2019-Jul-18 16:59N 40°51' E 008°23'0 0.1
2019-Jul-18 15:30N 40°51' E 008°23'0 0.0
2019-Jul-18 13:12N 40°51' E 008°23'0 0.0
2019-Jul-18 12:45N 40°51' E 008°23'0 0.0
2019-Jul-18 05:55N 40°51' E 008°23'3 2.8
2019-Jul-18 04:55N 40°53' E 008°24'4 8.4
2019-Jul-18 04:26N 40°57' E 008°25'3 6.7
2019-Jul-18 04:00N 41°00' E 008°24'6 9.6 270 / 101014.027.0 26.0 29.0
2019-Jul-18 03:19N 41°06' E 008°27'3 8.0
2019-Jul-18 02:59N 41°09' E 008°26'4 8.1
2019-Jul-18 02:30N 41°13' E 008°26'4 8.4
2019-Jul-18 02:00N 41°17' E 008°25'4 8.6
2019-Jul-18 01:30N 41°21' E 008°24'4 8.6
2019-Jul-18 01:00N 41°25' E 008°23'4 8.5
2019-Jul-18 00:30N 41°29' E 008°23'4 8.5
2019-Jul-18 00:00N 41°34' E 008°22'4 8.4
2019-Jul-17 23:30N 41°38' E 008°21'4 8.2
2019-Jul-17 23:00N 41°42' E 008°21'4 7.5
2019-Jul-17 22:30N 41°45' E 008°24'4 7.5
2019-Jul-17 21:55N 41°47' E 008°29'3 7.5
2019-Jul-17 21:30N 41°49' E 008°33'4 7.7
2019-Jul-17 21:00N 41°50' E 008°37'6 7.9
2019-Jul-17 20:17N 41°53' E 008°44'2 6.6
2019-Jul-17 19:59N 41°55' E 008°45'4 0.3
2019-Jul-17 04:46N 41°51' E 008°43'311.8
2019-Jul-17 04:31N 41°49' E 008°40'611.6
2019-Jul-17 04:01N 41°44' E 008°36'612.9
2019-Jul-17 03:30N 41°38' E 008°39'713.7
2019-Jul-17 03:01N 41°32' E 008°43'5320.3
2019-Jul-17 03:00N 41°30' E 008°36'918.7 300 / 41014.027.0 26.0 30.0
2019-Jul-17 02:31N 41°25' E 008°46'612.9
2019-Jul-17 02:00N 41°21' E 008°52'613.0
2019-Jul-17 01:31N 41°17' E 008°60'  
2019-Jul-14 19:18N 37°00' E 015°27'1816.4
2019-Jul-14 18:13N 37°17' E 015°19'11 0.8
2019-Jul-14 04:05N 37°27' E 015°25'215.9
2019-Jul-14 03:58N 37°27' E 015°27'915.8
2019-Jul-14 03:25N 37°25' E 015°38'715.9
2019-Jul-14 02:59N 37°22' E 015°46'816.4
2019-Jul-14 02:29N 37°21' E 015°56'816.2
2019-Jul-14 01:59N 37°19' E 016°06'1016.0
2019-Jul-14 01:20N 37°17' E 016°19'716.1
2019-Jul-14 00:55N 37°16' E 016°27'354 6.9
2019-Jul-11 21:16N 37°19' E 023°52'518.3
2019-Jul-11 20:59N 37°24' E 023°50'918.2
2019-Jul-11 20:31N 37°32' E 023°46'918.6
2019-Jul-11 20:00N 37°41' E 023°42'918.5
2019-Jul-11 19:31N 37°50' E 023°37'713.3
2019-Jul-11 19:00N 37°56' E 023°37'0 0.8
2019-Jul-11 18:31N 37°56' E 023°37'815.1
2019-Jul-11 18:00N 37°49' E 023°39'714.5
2019-Jul-11 17:31N 37°42' E 023°41'713.0
2019-Jul-11 17:01N 37°47' E 023°37'713.4
2019-Jul-11 16:31N 37°54' E 023°37'2 4.4
2019-Jul-11 15:58N 37°56' E 023°38'0 0.0
2019-Jul-11 15:28N 37°56' E 023°38'0 0.0
2019-Jul-11 14:58N 37°56' E 023°38'0 0.0
2019-Jul-11 14:28N 37°56' E 023°38'0 0.0
2019-Jul-11 13:58N 37°56' E 023°38'0 0.0
2019-Jul-11 13:28N 37°56' E 023°38'0 0.0
2019-Jul-11 12:58N 37°56' E 023°38'0 0.0
2019-Jul-11 12:28N 37°56' E 023°38'0 0.0
2019-Jul-11 11:58N 37°56' E 023°38'0 0.0
2019-Jul-11 11:28N 37°56' E 023°38'0 0.0
2019-Jul-11 10:58N 37°56' E 023°38'0 0.0
2019-Jul-11 10:28N 37°56' E 023°38'0 0.0
2019-Jul-11 09:58N 37°56' E 023°38'0 0.0
2019-Jul-11 09:25N 37°56' E 023°38'0 0.0
2019-Jul-11 08:58N 37°56' E 023°38'0 0.0
2019-Jul-11 08:28N 37°56' E 023°38'0 0.0
2019-Jul-11 07:58N 37°56' E 023°38'0 0.0
2019-Jul-11 07:28N 37°56' E 023°38'0 0.0
2019-Jul-11 06:55N 37°56' E 023°38'0 0.0
2019-Jul-11 06:28N 37°56' E 023°38'0 0.0
2019-Jul-11 05:58N 37°56' E 023°38'0 0.0
2019-Jul-11 05:28N 37°56' E 023°38'0 0.0
2019-Jul-11 04:58N 37°56' E 023°38'0 0.0
2019-Jul-11 04:22N 37°56' E 023°38'0 0.0
2019-Jul-11 03:58N 37°56' E 023°38'0 0.0
2019-Jul-11 03:28N 37°56' E 023°38'0 0.0
2019-Jul-11 03:00N 37°56' E 023°38'0 0.0
2019-Jul-11 02:30N 37°56' E 023°38'0 0.0
2019-Jul-11 02:00N 37°56' E 023°38'0 0.0
2019-Jul-11 01:30N 37°56' E 023°38'1 2.6
2019-Jul-11 01:00N 37°56' E 023°37'714.7
2019-Jul-11 00:30N 37°49' E 023°40'815.9
2019-Jul-11 00:00N 37°42' E 023°44'815.8
2019-Jul-10 23:30N 37°34' E 023°48'816.2
2019-Jul-10 23:01N 37°27' E 023°52'816.5
2019-Jul-10 22:31N 37°19' E 023°55'816.7
2019-Jul-10 22:00N 37°11' E 023°59'916.6
2019-Jul-10 21:29N 37°03' E 024°03'816.6
2019-Jul-10 21:00N 36°56' E 024°06'816.6
2019-Jul-10 20:30N 36°48' E 024°09'816.7
2019-Jul-10 20:00N 36°40' E 024°12'61 3.3
2019-Jul-10 01:20N 35°39' E 024°15'5316.7
2019-Jul-09 22:09N 35°46' E 023°10'516.4
2019-Jul-09 21:50N 35°47' E 023°04'5218.2
2019-Jul-09 19:00N 35°48' E 022°00'   310 / 191012.010.8 27.0 30.0

Dump ship's entire track history